sensor_id;sensor_type;location;lat;lon;timestamp;temperature;humidity
4453;DHT22;2239;48.152;11.584;2023-07-28T00:00:13;17.60;99.90
4453;DHT22;2239;48.152;11.584;2023-07-28T00:02:39;17.60;99.90
4453;DHT22;2239;48.152;11.584;2023-07-28T00:05:05;17.50;99.90
4453;DHT22;2239;48.152;11.584;2023-07-28T00:07:30;17.50;99.90
4453;DHT22;2239;48.152;11.584;2023-07-28T00:09:59;17.50;99.90
4453;DHT22;2239;48.152;11.584;2023-07-28T00:12:24;17.40;99.90
4453;DHT22;2239;48.152;11.584;2023-07-28T00:14:50;17.40;99.90
4453;DHT22;2239;48.152;11.584;2023-07-28T00:17:15;17.30;99.90
4453;DHT22;2239;48.152;11.584;2023-07-28T00:19:41;17.30;99.90
4453;DHT22;2239;48.152;11.584;2023-07-28T00:22:07;17.30;99.90
4453;DHT22;2239;48.152;11.584;2023-07-28T00:24:32;17.30;99.90
4453;DHT22;2239;48.152;11.584;2023-07-28T00:26:58;17.30;99.90
4453;DHT22;2239;48.152;11.584;2023-07-28T00:29:23;17.30;99.90
4453;DHT22;2239;48.152;11.584;2023-07-28T00:31:49;17.30;99.90
4453;DHT22;2239;48.152;11.584;2023-07-28T00:34:14;17.30;99.90
4453;DHT22;2239;48.152;11.584;2023-07-28T00:36:40;17.40;99.90
4453;DHT22;2239;48.152;11.584;2023-07-28T00:39:07;17.30;99.90
4453;DHT22;2239;48.152;11.584;2023-07-28T00:41:32;17.30;99.90
4453;DHT22;2239;48.152;11.584;2023-07-28T00:43:58;17.30;99.90
4453;DHT22;2239;48.152;11.584;2023-07-28T00:46:23;17.20;99.90
4453;DHT22;2239;48.152;11.584;2023-07-28T00:48:49;17.20;99.90
4453;DHT22;2239;48.152;11.584;2023-07-28T00:51:15;17.10;99.90
4453;DHT22;2239;48.152;11.584;2023-07-28T00:53:41;17.10;99.90
4453;DHT22;2239;48.152;11.584;2023-07-28T00:56:07;17.10;99.90
4453;DHT22;2239;48.152;11.584;2023-07-28T00:58:33;17.10;99.90
4453;DHT22;2239;48.152;11.584;2023-07-28T01:00:59;17.10;99.90
4453;DHT22;2239;48.152;11.584;2023-07-28T01:03:24;17.10;99.90
4453;DHT22;2239;48.152;11.584;2023-07-28T01:06:18;17.10;99.90
4453;DHT22;2239;48.152;11.584;2023-07-28T01:09:02;17.10;99.90
4453;DHT22;2239;48.152;11.584;2023-07-28T01:11:30;17.00;99.90
4453;DHT22;2239;48.152;11.584;2023-07-28T01:13:56;17.00;99.90
4453;DHT22;2239;48.152;11.584;2023-07-28T01:16:22;17.00;99.90
4453;DHT22;2239;48.152;11.584;2023-07-28T01:18:47;17.00;99.90
4453;DHT22;2239;48.152;11.584;2023-07-28T01:21:28;17.00;99.90
4453;DHT22;2239;48.152;11.584;2023-07-28T01:24:15;17.00;99.90
4453;DHT22;2239;48.152;11.584;2023-07-28T01:26:42;17.00;99.90
4453;DHT22;2239;48.152;11.584;2023-07-28T01:29:08;17.00;99.90
4453;DHT22;2239;48.152;11.584;2023-07-28T01:31:34;17.00;99.90
4453;DHT22;2239;48.152;11.584;2023-07-28T01:34:00;17.00;99.90
4453;DHT22;2239;48.152;11.584;2023-07-28T01:36:25;17.00;99.90
4453;DHT22;2239;48.152;11.584;2023-07-28T01:38:51;16.90;99.90
4453;DHT22;2239;48.152;11.584;2023-07-28T01:41:16;16.90;99.90
4453;DHT22;2239;48.152;11.584;2023-07-28T01:43:42;16.80;99.90
4453;DHT22;2239;48.152;11.584;2023-07-28T01:46:08;16.80;99.90
4453;DHT22;2239;48.152;11.584;2023-07-28T01:48:33;16.80;99.90
4453;DHT22;2239;48.152;11.584;2023-07-28T01:50:59;16.90;99.90
4453;DHT22;2239;48.152;11.584;2023-07-28T01:53:24;16.80;99.90
4453;DHT22;2239;48.152;11.584;2023-07-28T01:55:50;16.80;99.90
4453;DHT22;2239;48.152;11.584;2023-07-28T01:58:16;16.70;99.90
4453;DHT22;2239;48.152;11.584;2023-07-28T02:00:41;16.70;99.90
4453;DHT22;2239;48.152;11.584;2023-07-28T02:03:07;16.70;99.90
4453;DHT22;2239;48.152;11.584;2023-07-28T02:05:32;16.70;99.90
4453;DHT22;2239;48.152;11.584;2023-07-28T02:07:58;16.70;99.90
4453;DHT22;2239;48.152;11.584;2023-07-28T02:10:26;16.70;99.90
4453;DHT22;2239;48.152;11.584;2023-07-28T02:12:51;16.70;99.90
4453;DHT22;2239;48.152;11.584;2023-07-28T02:15:17;16.70;99.90
4453;DHT22;2239;48.152;11.584;2023-07-28T02:17:43;16.60;99.90
4453;DHT22;2239;48.152;11.584;2023-07-28T02:20:08;16.60;99.90
4453;DHT22;2239;48.152;11.584;2023-07-28T02:22:41;16.60;99.90
4453;DHT22;2239;48.152;11.584;2023-07-28T02:25:08;16.60;99.90
4453;DHT22;2239;48.152;11.584;2023-07-28T02:27:33;16.50;99.90
4453;DHT22;2239;48.152;11.584;2023-07-28T02:29:59;16.50;99.90
4453;DHT22;2239;48.152;11.584;2023-07-28T02:32:26;16.60;99.90
4453;DHT22;2239;48.152;11.584;2023-07-28T02:34:51;16.50;99.90
4453;DHT22;2239;48.152;11.584;2023-07-28T02:37:17;16.50;99.90
4453;DHT22;2239;48.152;11.584;2023-07-28T02:39:43;16.40;99.90
4453;DHT22;2239;48.152;11.584;2023-07-28T02:42:09;16.40;99.90
4453;DHT22;2239;48.152;11.584;2023-07-28T02:44:34;16.30;99.90
4453;DHT22;2239;48.152;11.584;2023-07-28T02:47:00;16.30;99.90
4453;DHT22;2239;48.152;11.584;2023-07-28T02:49:25;16.30;99.90
4453;DHT22;2239;48.152;11.584;2023-07-28T02:51:51;16.30;99.90
4453;DHT22;2239;48.152;11.584;2023-07-28T02:54:16;16.30;99.90
4453;DHT22;2239;48.152;11.584;2023-07-28T02:56:42;16.30;99.90
4453;DHT22;2239;48.152;11.584;2023-07-28T02:59:07;16.30;99.90
4453;DHT22;2239;48.152;11.584;2023-07-28T03:01:33;16.30;99.90
4453;DHT22;2239;48.152;11.584;2023-07-28T03:04:02;16.30;99.90
4453;DHT22;2239;48.152;11.584;2023-07-28T03:06:28;16.20;99.90
4453;DHT22;2239;48.152;11.584;2023-07-28T03:08:53;16.20;99.90
4453;DHT22;2239;48.152;11.584;2023-07-28T03:11:19;16.20;99.90
4453;DHT22;2239;48.152;11.584;2023-07-28T03:13:45;16.10;99.90
4453;DHT22;2239;48.152;11.584;2023-07-28T03:16:11;16.10;99.90
4453;DHT22;2239;48.152;11.584;2023-07-28T03:18:37;16.10;99.90
4453;DHT22;2239;48.152;11.584;2023-07-28T03:21:02;16.00;99.90
4453;DHT22;2239;48.152;11.584;2023-07-28T03:23:28;16.00;99.90
4453;DHT22;2239;48.152;11.584;2023-07-28T03:25:54;16.00;99.90
4453;DHT22;2239;48.152;11.584;2023-07-28T03:28:19;16.00;99.90
4453;DHT22;2239;48.152;11.584;2023-07-28T03:30:45;16.00;99.90
4453;DHT22;2239;48.152;11.584;2023-07-28T03:33:11;16.00;99.90
4453;DHT22;2239;48.152;11.584;2023-07-28T03:35:36;16.00;99.90
4453;DHT22;2239;48.152;11.584;2023-07-28T03:38:02;16.00;99.90
4453;DHT22;2239;48.152;11.584;2023-07-28T03:40:28;16.00;99.90
4453;DHT22;2239;48.152;11.584;2023-07-28T03:42:53;16.00;99.90
4453;DHT22;2239;48.152;11.584;2023-07-28T03:45:19;16.00;99.90
4453;DHT22;2239;48.152;11.584;2023-07-28T03:47:45;16.00;99.90
4453;DHT22;2239;48.152;11.584;2023-07-28T03:50:10;16.00;99.90
4453;DHT22;2239;48.152;11.584;2023-07-28T03:52:36;16.10;99.90
4453;DHT22;2239;48.152;11.584;2023-07-28T03:55:02;16.10;99.90
4453;DHT22;2239;48.152;11.584;2023-07-28T03:57:27;16.20;99.90
4453;DHT22;2239;48.152;11.584;2023-07-28T03:59:53;16.20;99.90
4453;DHT22;2239;48.152;11.584;2023-07-28T04:02:18;16.30;99.90
4453;DHT22;2239;48.152;11.584;2023-07-28T04:04:44;16.40;99.90
4453;DHT22;2239;48.152;11.584;2023-07-28T04:07:10;16.30;99.90
4453;DHT22;2239;48.152;11.584;2023-07-28T04:09:35;16.30;99.90
4453;DHT22;2239;48.152;11.584;2023-07-28T04:12:01;16.40;99.90
4453;DHT22;2239;48.152;11.584;2023-07-28T04:14:26;16.40;99.90
4453;DHT22;2239;48.152;11.584;2023-07-28T04:16:52;16.40;99.90
4453;DHT22;2239;48.152;11.584;2023-07-28T04:19:17;16.50;99.90
4453;DHT22;2239;48.152;11.584;2023-07-28T04:21:43;16.50;99.90
4453;DHT22;2239;48.152;11.584;2023-07-28T04:24:09;16.60;99.90
4453;DHT22;2239;48.152;11.584;2023-07-28T04:26:35;16.70;99.90
4453;DHT22;2239;48.152;11.584;2023-07-28T04:29:00;16.80;99.90
4453;DHT22;2239;48.152;11.584;2023-07-28T04:31:26;16.90;99.90
4453;DHT22;2239;48.152;11.584;2023-07-28T04:33:52;17.10;99.90
4453;DHT22;2239;48.152;11.584;2023-07-28T04:36:17;17.20;99.90
4453;DHT22;2239;48.152;11.584;2023-07-28T04:38:43;17.20;99.90
4453;DHT22;2239;48.152;11.584;2023-07-28T04:41:09;17.20;99.90
4453;DHT22;2239;48.152;11.584;2023-07-28T04:43:34;17.20;99.90
4453;DHT22;2239;48.152;11.584;2023-07-28T04:46:00;17.10;99.90
4453;DHT22;2239;48.152;11.584;2023-07-28T04:48:27;17.10;99.90
4453;DHT22;2239;48.152;11.584;2023-07-28T04:50:52;17.10;99.90
4453;DHT22;2239;48.152;11.584;2023-07-28T04:53:18;17.10;99.90
4453;DHT22;2239;48.152;11.584;2023-07-28T04:55:44;17.20;99.90
4453;DHT22;2239;48.152;11.584;2023-07-28T04:58:09;17.30;99.90
4453;DHT22;2239;48.152;11.584;2023-07-28T05:00:35;17.50;99.90
4453;DHT22;2239;48.152;11.584;2023-07-28T05:03:00;17.60;99.90
4453;DHT22;2239;48.152;11.584;2023-07-28T05:05:26;17.70;99.90
4453;DHT22;2239;48.152;11.584;2023-07-28T05:07:51;17.80;99.90
4453;DHT22;2239;48.152;11.584;2023-07-28T05:10:20;17.80;99.90
4453;DHT22;2239;48.152;11.584;2023-07-28T05:12:45;17.70;99.90
4453;DHT22;2239;48.152;11.584;2023-07-28T05:15:14;17.70;99.90
4453;DHT22;2239;48.152;11.584;2023-07-28T05:17:40;17.70;99.90
4453;DHT22;2239;48.152;11.584;2023-07-28T05:20:06;17.80;99.90
4453;DHT22;2239;48.152;11.584;2023-07-28T05:22:32;17.80;99.90
4453;DHT22;2239;48.152;11.584;2023-07-28T05:24:58;17.90;99.90
4453;DHT22;2239;48.152;11.584;2023-07-28T05:27:23;17.90;99.90
4453;DHT22;2239;48.152;11.584;2023-07-28T05:29:49;18.00;99.90
4453;DHT22;2239;48.152;11.584;2023-07-28T05:32:15;18.10;99.90
4453;DHT22;2239;48.152;11.584;2023-07-28T05:34:43;18.20;99.90
4453;DHT22;2239;48.152;11.584;2023-07-28T05:37:10;18.30;99.90
4453;DHT22;2239;48.152;11.584;2023-07-28T05:39:35;18.30;99.90
4453;DHT22;2239;48.152;11.584;2023-07-28T05:42:01;18.50;99.90
4453;DHT22;2239;48.152;11.584;2023-07-28T05:44:27;18.60;99.90
4453;DHT22;2239;48.152;11.584;2023-07-28T05:46:53;18.70;99.90
4453;DHT22;2239;48.152;11.584;2023-07-28T05:49:18;18.70;99.90
4453;DHT22;2239;48.152;11.584;2023-07-28T05:51:44;18.80;99.90
4453;DHT22;2239;48.152;11.584;2023-07-28T05:54:09;18.80;99.90
4453;DHT22;2239;48.152;11.584;2023-07-28T05:56:35;18.90;99.90
4453;DHT22;2239;48.152;11.584;2023-07-28T05:59:00;19.00;99.90
4453;DHT22;2239;48.152;11.584;2023-07-28T06:01:26;19.00;99.90
4453;DHT22;2239;48.152;11.584;2023-07-28T06:03:52;19.10;99.90
4453;DHT22;2239;48.152;11.584;2023-07-28T06:06:21;19.30;99.90
4453;DHT22;2239;48.152;11.584;2023-07-28T06:08:47;19.60;99.90
4453;DHT22;2239;48.152;11.584;2023-07-28T06:11:12;19.70;99.90
4453;DHT22;2239;48.152;11.584;2023-07-28T06:13:38;19.80;99.90
4453;DHT22;2239;48.152;11.584;2023-07-28T06:16:04;19.70;99.90
4453;DHT22;2239;48.152;11.584;2023-07-28T06:18:29;19.60;99.90
4453;DHT22;2239;48.152;11.584;2023-07-28T06:20:55;19.60;99.90
4453;DHT22;2239;48.152;11.584;2023-07-28T06:23:20;19.60;99.90
4453;DHT22;2239;48.152;11.584;2023-07-28T06:25:46;19.70;99.90
4453;DHT22;2239;48.152;11.584;2023-07-28T06:28:12;19.70;99.90
4453;DHT22;2239;48.152;11.584;2023-07-28T06:30:38;19.70;99.90
4453;DHT22;2239;48.152;11.584;2023-07-28T06:33:06;19.70;99.90
4453;DHT22;2239;48.152;11.584;2023-07-28T06:35:32;19.80;99.90
4453;DHT22;2239;48.152;11.584;2023-07-28T06:37:58;19.90;99.90
4453;DHT22;2239;48.152;11.584;2023-07-28T06:40:24;20.00;99.90
4453;DHT22;2239;48.152;11.584;2023-07-28T06:42:50;20.10;99.90
4453;DHT22;2239;48.152;11.584;2023-07-28T06:45:15;20.30;99.90
4453;DHT22;2239;48.152;11.584;2023-07-28T06:47:41;20.50;99.90
4453;DHT22;2239;48.152;11.584;2023-07-28T06:50:07;20.70;99.90
4453;DHT22;2239;48.152;11.584;2023-07-28T06:52:32;21.00;99.90
4453;DHT22;2239;48.152;11.584;2023-07-28T06:54:58;21.20;99.90
4453;DHT22;2239;48.152;11.584;2023-07-28T06:57:23;21.30;99.90
4453;DHT22;2239;48.152;11.584;2023-07-28T06:59:50;21.40;99.90
4453;DHT22;2239;48.152;11.584;2023-07-28T07:02:15;21.40;99.90
4453;DHT22;2239;48.152;11.584;2023-07-28T07:04:41;21.60;99.90
4453;DHT22;2239;48.152;11.584;2023-07-28T07:07:07;21.70;99.90
4453;DHT22;2239;48.152;11.584;2023-07-28T07:09:33;21.70;99.90
4453;DHT22;2239;48.152;11.584;2023-07-28T07:11:58;21.90;99.90
4453;DHT22;2239;48.152;11.584;2023-07-28T07:14:24;22.00;99.90
4453;DHT22;2239;48.152;11.584;2023-07-28T07:16:49;22.10;99.90
4453;DHT22;2239;48.152;11.584;2023-07-28T07:19:16;22.10;99.90
4453;DHT22;2239;48.152;11.584;2023-07-28T07:21:42;22.20;99.90
4453;DHT22;2239;48.152;11.584;2023-07-28T07:24:10;22.20;99.90
4453;DHT22;2239;48.152;11.584;2023-07-28T07:26:35;22.30;99.90
4453;DHT22;2239;48.152;11.584;2023-07-28T07:29:01;22.30;99.90
4453;DHT22;2239;48.152;11.584;2023-07-28T07:31:26;22.20;99.90
4453;DHT22;2239;48.152;11.584;2023-07-28T07:33:52;22.40;99.90
4453;DHT22;2239;48.152;11.584;2023-07-28T07:36:19;22.60;99.90
4453;DHT22;2239;48.152;11.584;2023-07-28T07:38:45;22.80;99.80
4453;DHT22;2239;48.152;11.584;2023-07-28T07:41:15;23.00;99.60
4453;DHT22;2239;48.152;11.584;2023-07-28T07:43:48;23.20;99.40
4453;DHT22;2239;48.152;11.584;2023-07-28T07:46:14;23.40;99.00
4453;DHT22;2239;48.152;11.584;2023-07-28T07:48:40;23.40;98.30
4453;DHT22;2239;48.152;11.584;2023-07-28T07:51:06;23.40;97.60
4453;DHT22;2239;48.152;11.584;2023-07-28T07:53:32;23.50;97.50
4453;DHT22;2239;48.152;11.584;2023-07-28T07:55:58;23.40;97.00
4453;DHT22;2239;48.152;11.584;2023-07-28T07:58:23;23.30;96.30
4453;DHT22;2239;48.152;11.584;2023-07-28T08:00:49;23.10;96.30
4453;DHT22;2239;48.152;11.584;2023-07-28T08:03:15;23.20;96.30
4453;DHT22;2239;48.152;11.584;2023-07-28T08:05:40;23.40;96.00
4453;DHT22;2239;48.152;11.584;2023-07-28T08:08:06;23.60;95.70
4453;DHT22;2239;48.152;11.584;2023-07-28T08:10:33;23.70;95.60
4453;DHT22;2239;48.152;11.584;2023-07-28T08:12:59;23.60;95.70
4453;DHT22;2239;48.152;11.584;2023-07-28T08:15:25;23.60;95.80
4453;DHT22;2239;48.152;11.584;2023-07-28T08:17:51;23.70;95.70
4453;DHT22;2239;48.152;11.584;2023-07-28T08:20:17;23.80;95.70
4453;DHT22;2239;48.152;11.584;2023-07-28T08:22:43;24.00;95.80
4453;DHT22;2239;48.152;11.584;2023-07-28T08:25:09;24.40;95.40
4453;DHT22;2239;48.152;11.584;2023-07-28T08:27:34;24.60;94.90
4453;DHT22;2239;48.152;11.584;2023-07-28T08:30:00;24.80;94.80
4453;DHT22;2239;48.152;11.584;2023-07-28T08:32:26;25.00;94.50
4453;DHT22;2239;48.152;11.584;2023-07-28T08:34:51;25.30;94.20
4453;DHT22;2239;48.152;11.584;2023-07-28T08:37:17;25.20;94.20
4453;DHT22;2239;48.152;11.584;2023-07-28T08:39:42;25.10;94.20
4453;DHT22;2239;48.152;11.584;2023-07-28T08:42:08;25.00;94.30
4453;DHT22;2239;48.152;11.584;2023-07-28T08:44:34;24.80;94.40
4453;DHT22;2239;48.152;11.584;2023-07-28T08:47:02;24.80;94.80
4453;DHT22;2239;48.152;11.584;2023-07-28T08:49:27;24.70;94.80
4453;DHT22;2239;48.152;11.584;2023-07-28T08:51:58;24.60;95.00
4453;DHT22;2239;48.152;11.584;2023-07-28T08:54:23;24.60;94.90
4453;DHT22;2239;48.152;11.584;2023-07-28T08:56:49;24.90;94.50
4453;DHT22;2239;48.152;11.584;2023-07-28T08:59:22;24.90;94.60
4453;DHT22;2239;48.152;11.584;2023-07-28T09:01:50;25.10;94.50
4453;DHT22;2239;48.152;11.584;2023-07-28T09:04:15;25.40;94.00
4453;DHT22;2239;48.152;11.584;2023-07-28T09:06:45;25.50;93.80
4453;DHT22;2239;48.152;11.584;2023-07-28T09:09:11;25.50;93.90
4453;DHT22;2239;48.152;11.584;2023-07-28T09:11:47;25.40;93.50
4453;DHT22;2239;48.152;11.584;2023-07-28T09:14:14;25.30;93.40
4453;DHT22;2239;48.152;11.584;2023-07-28T09:16:45;25.20;93.80
4453;DHT22;2239;48.152;11.584;2023-07-28T09:19:11;25.10;93.60
4453;DHT22;2239;48.152;11.584;2023-07-28T09:21:39;25.00;93.60
4453;DHT22;2239;48.152;11.584;2023-07-28T09:24:10;24.90;93.50
4453;DHT22;2239;48.152;11.584;2023-07-28T09:26:44;24.90;93.70
4453;DHT22;2239;48.152;11.584;2023-07-28T09:29:22;24.90;93.70
4453;DHT22;2239;48.152;11.584;2023-07-28T09:31:49;24.90;93.90
4453;DHT22;2239;48.152;11.584;2023-07-28T09:34:28;24.90;93.60
4453;DHT22;2239;48.152;11.584;2023-07-28T09:36:57;24.70;93.60
4453;DHT22;2239;48.152;11.584;2023-07-28T09:39:24;24.60;93.80
4453;DHT22;2239;48.152;11.584;2023-07-28T09:41:50;24.50;93.90
4453;DHT22;2239;48.152;11.584;2023-07-28T09:44:16;24.50;94.00
4453;DHT22;2239;48.152;11.584;2023-07-28T09:46:53;24.50;94.20
4453;DHT22;2239;48.152;11.584;2023-07-28T09:49:22;24.50;94.20
4453;DHT22;2239;48.152;11.584;2023-07-28T09:51:53;24.50;93.90
4453;DHT22;2239;48.152;11.584;2023-07-28T09:54:29;24.50;93.90
4453;DHT22;2239;48.152;11.584;2023-07-28T09:56:57;24.50;94.10
4453;DHT22;2239;48.152;11.584;2023-07-28T09:59:29;24.50;93.60
4453;DHT22;2239;48.152;11.584;2023-07-28T10:01:58;24.60;93.80
4453;DHT22;2239;48.152;11.584;2023-07-28T10:04:23;24.70;93.90
4453;DHT22;2239;48.152;11.584;2023-07-28T10:06:51;24.80;93.80
4453;DHT22;2239;48.152;11.584;2023-07-28T10:09:17;25.00;93.50
4453;DHT22;2239;48.152;11.584;2023-07-28T10:11:43;24.90;93.10
4453;DHT22;2239;48.152;11.584;2023-07-28T10:14:08;24.90;92.90
4453;DHT22;2239;48.152;11.584;2023-07-28T10:16:38;24.80;93.00
4453;DHT22;2239;48.152;11.584;2023-07-28T10:19:04;24.80;93.20
4453;DHT22;2239;48.152;11.584;2023-07-28T10:21:29;24.90;93.50
4453;DHT22;2239;48.152;11.584;2023-07-28T10:23:58;24.90;93.20
4453;DHT22;2239;48.152;11.584;2023-07-28T10:26:39;24.90;93.30
4453;DHT22;2239;48.152;11.584;2023-07-28T10:29:15;24.90;92.90
4453;DHT22;2239;48.152;11.584;2023-07-28T10:31:52;25.00;92.80
4453;DHT22;2239;48.152;11.584;2023-07-28T10:34:18;25.00;93.00
4453;DHT22;2239;48.152;11.584;2023-07-28T10:36:45;25.00;93.00
4453;DHT22;2239;48.152;11.584;2023-07-28T10:39:17;25.00;92.50
4453;DHT22;2239;48.152;11.584;2023-07-28T10:42:05;24.80;92.60
4453;DHT22;2239;48.152;11.584;2023-07-28T10:44:32;24.60;92.70
4453;DHT22;2239;48.152;11.584;2023-07-28T10:46:58;24.70;93.00
4453;DHT22;2239;48.152;11.584;2023-07-28T10:49:25;24.80;92.90
4453;DHT22;2239;48.152;11.584;2023-07-28T10:51:51;24.80;92.50
4453;DHT22;2239;48.152;11.584;2023-07-28T10:54:16;24.70;92.60
4453;DHT22;2239;48.152;11.584;2023-07-28T10:56:46;24.70;92.50
4453;DHT22;2239;48.152;11.584;2023-07-28T10:59:12;24.80;92.50
4453;DHT22;2239;48.152;11.584;2023-07-28T11:01:39;24.90;92.40
4453;DHT22;2239;48.152;11.584;2023-07-28T11:04:17;24.90;92.30
4453;DHT22;2239;48.152;11.584;2023-07-28T11:06:45;25.00;92.40
4453;DHT22;2239;48.152;11.584;2023-07-28T11:09:12;25.00;92.20
4453;DHT22;2239;48.152;11.584;2023-07-28T11:11:38;25.00;92.20
4453;DHT22;2239;48.152;11.584;2023-07-28T11:14:05;25.10;91.90
4453;DHT22;2239;48.152;11.584;2023-07-28T11:16:39;25.20;91.80
4453;DHT22;2239;48.152;11.584;2023-07-28T11:19:13;25.50;91.70
4453;DHT22;2239;48.152;11.584;2023-07-28T11:21:43;26.00;90.90
4453;DHT22;2239;48.152;11.584;2023-07-28T11:24:10;26.30;90.30
4453;DHT22;2239;48.152;11.584;2023-07-28T11:26:37;26.30;89.20
4453;DHT22;2239;48.152;11.584;2023-07-28T11:29:04;26.20;89.60
4453;DHT22;2239;48.152;11.584;2023-07-28T11:31:29;26.00;90.40
4453;DHT22;2239;48.152;11.584;2023-07-28T11:33:55;26.00;90.50
4453;DHT22;2239;48.152;11.584;2023-07-28T11:36:28;25.90;90.40
4453;DHT22;2239;48.152;11.584;2023-07-28T11:38:58;25.80;90.30
4453;DHT22;2239;48.152;11.584;2023-07-28T11:41:25;25.90;90.50
4453;DHT22;2239;48.152;11.584;2023-07-28T11:43:51;25.90;90.40
4453;DHT22;2239;48.152;11.584;2023-07-28T11:49:11;25.90;90.50
4453;DHT22;2239;48.152;11.584;2023-07-28T11:51:51;26.00;90.60
4453;DHT22;2239;48.152;11.584;2023-07-28T11:54:21;26.00;90.50
4453;DHT22;2239;48.152;11.584;2023-07-28T11:56:48;26.00;90.40
4453;DHT22;2239;48.152;11.584;2023-07-28T11:59:18;25.90;90.70
4453;DHT22;2239;48.152;11.584;2023-07-28T12:01:59;26.00;90.70
4453;DHT22;2239;48.152;11.584;2023-07-28T12:04:27;26.10;90.00
4453;DHT22;2239;48.152;11.584;2023-07-28T12:07:08;26.00;88.60
4453;DHT22;2239;48.152;11.584;2023-07-28T12:12:15;26.10;88.40
4453;DHT22;2239;48.152;11.584;2023-07-28T12:14:41;26.20;87.80
4453;DHT22;2239;48.152;11.584;2023-07-28T12:17:13;26.40;87.90
4453;DHT22;2239;48.152;11.584;2023-07-28T12:22:23;26.60;87.40
4453;DHT22;2239;48.152;11.584;2023-07-28T12:24:48;26.70;87.00
4453;DHT22;2239;48.152;11.584;2023-07-28T12:27:14;26.80;87.00
4453;DHT22;2239;48.152;11.584;2023-07-28T12:29:41;26.90;87.20
4453;DHT22;2239;48.152;11.584;2023-07-28T12:32:07;26.80;87.30
4453;DHT22;2239;48.152;11.584;2023-07-28T12:34:33;26.60;87.30
4453;DHT22;2239;48.152;11.584;2023-07-28T12:36:58;26.50;87.70
4453;DHT22;2239;48.152;11.584;2023-07-28T12:39:24;26.40;87.50
4453;DHT22;2239;48.152;11.584;2023-07-28T12:41:50;26.30;87.80
4453;DHT22;2239;48.152;11.584;2023-07-28T12:44:20;26.20;88.00
4453;DHT22;2239;48.152;11.584;2023-07-28T12:46:45;26.00;88.10
4453;DHT22;2239;48.152;11.584;2023-07-28T12:49:11;26.10;88.90
4453;DHT22;2239;48.152;11.584;2023-07-28T12:51:37;26.30;88.40
4453;DHT22;2239;48.152;11.584;2023-07-28T12:54:02;26.70;88.30
4453;DHT22;2239;48.152;11.584;2023-07-28T12:56:28;27.20;86.20
4453;DHT22;2239;48.152;11.584;2023-07-28T12:58:54;27.30;83.70
4453;DHT22;2239;48.152;11.584;2023-07-28T13:01:19;27.40;83.70
4453;DHT22;2239;48.152;11.584;2023-07-28T13:03:45;27.30;83.50
4453;DHT22;2239;48.152;11.584;2023-07-28T13:06:10;27.30;83.10
4453;DHT22;2239;48.152;11.584;2023-07-28T13:08:36;27.10;82.50
4453;DHT22;2239;48.152;11.584;2023-07-28T13:11:02;27.10;82.70
4453;DHT22;2239;48.152;11.584;2023-07-28T13:13:28;27.10;82.90
4453;DHT22;2239;48.152;11.584;2023-07-28T13:15:55;27.00;83.80
4453;DHT22;2239;48.152;11.584;2023-07-28T13:18:21;27.00;84.60
4453;DHT22;2239;48.152;11.584;2023-07-28T13:20:47;27.10;84.80
4453;DHT22;2239;48.152;11.584;2023-07-28T13:23:13;27.00;84.90
4453;DHT22;2239;48.152;11.584;2023-07-28T13:25:38;26.90;85.50
4453;DHT22;2239;48.152;11.584;2023-07-28T13:28:04;26.80;85.10
4453;DHT22;2239;48.152;11.584;2023-07-28T13:30:29;26.80;85.70
4453;DHT22;2239;48.152;11.584;2023-07-28T13:32:55;26.70;85.40
4453;DHT22;2239;48.152;11.584;2023-07-28T13:35:21;26.60;86.10
4453;DHT22;2239;48.152;11.584;2023-07-28T13:37:47;26.50;86.00
4453;DHT22;2239;48.152;11.584;2023-07-28T13:40:12;26.30;85.70
4453;DHT22;2239;48.152;11.584;2023-07-28T13:42:38;26.10;87.40
4453;DHT22;2239;48.152;11.584;2023-07-28T13:45:04;26.10;88.10
4453;DHT22;2239;48.152;11.584;2023-07-28T13:47:30;26.20;87.90
4453;DHT22;2239;48.152;11.584;2023-07-28T13:49:55;26.30;88.20
4453;DHT22;2239;48.152;11.584;2023-07-28T13:52:21;26.30;87.50
4453;DHT22;2239;48.152;11.584;2023-07-28T13:54:47;26.20;87.40
4453;DHT22;2239;48.152;11.584;2023-07-28T13:57:13;26.20;87.40
4453;DHT22;2239;48.152;11.584;2023-07-28T13:59:40;26.20;87.00
4453;DHT22;2239;48.152;11.584;2023-07-28T14:02:05;26.20;87.00
4453;DHT22;2239;48.152;11.584;2023-07-28T14:04:31;26.10;86.70
4453;DHT22;2239;48.152;11.584;2023-07-28T14:06:56;26.00;86.70
4453;DHT22;2239;48.152;11.584;2023-07-28T14:09:24;25.90;86.70
4453;DHT22;2239;48.152;11.584;2023-07-28T14:11:49;25.80;86.70
4453;DHT22;2239;48.152;11.584;2023-07-28T14:14:15;25.60;87.10
4453;DHT22;2239;48.152;11.584;2023-07-28T14:16:40;25.40;86.90
4453;DHT22;2239;48.152;11.584;2023-07-28T14:19:06;25.30;87.40
4453;DHT22;2239;48.152;11.584;2023-07-28T14:21:31;25.10;88.20
4453;DHT22;2239;48.152;11.584;2023-07-28T14:23:58;25.10;88.60
4453;DHT22;2239;48.152;11.584;2023-07-28T14:26:23;25.00;89.00
4453;DHT22;2239;48.152;11.584;2023-07-28T14:28:49;25.00;89.30
4453;DHT22;2239;48.152;11.584;2023-07-28T14:31:14;24.90;90.50
4453;DHT22;2239;48.152;11.584;2023-07-28T14:33:40;24.70;92.80
4453;DHT22;2239;48.152;11.584;2023-07-28T14:36:05;24.40;94.60
4453;DHT22;2239;48.152;11.584;2023-07-28T14:38:31;24.20;95.80
4453;DHT22;2239;48.152;11.584;2023-07-28T14:40:56;24.00;97.80
4453;DHT22;2239;48.152;11.584;2023-07-28T14:43:22;23.90;97.60
4453;DHT22;2239;48.152;11.584;2023-07-28T14:45:49;23.80;98.60
4453;DHT22;2239;48.152;11.584;2023-07-28T14:48:15;23.70;98.50
4453;DHT22;2239;48.152;11.584;2023-07-28T14:50:41;23.70;99.60
4453;DHT22;2239;48.152;11.584;2023-07-28T14:53:27;23.70;99.60
4453;DHT22;2239;48.152;11.584;2023-07-28T14:55:53;23.90;99.90
4453;DHT22;2239;48.152;11.584;2023-07-28T14:58:18;24.00;99.90
4453;DHT22;2239;48.152;11.584;2023-07-28T15:00:44;24.00;99.90
4453;DHT22;2239;48.152;11.584;2023-07-28T15:03:10;24.20;99.90
4453;DHT22;2239;48.152;11.584;2023-07-28T15:05:35;24.30;99.90
4453;DHT22;2239;48.152;11.584;2023-07-28T15:08:01;24.40;99.50
4453;DHT22;2239;48.152;11.584;2023-07-28T15:10:26;24.50;97.90
4453;DHT22;2239;48.152;11.584;2023-07-28T15:12:52;24.80;97.90
4453;DHT22;2239;48.152;11.584;2023-07-28T15:15:17;24.80;97.60
4453;DHT22;2239;48.152;11.584;2023-07-28T15:17:43;24.90;98.00
4453;DHT22;2239;48.152;11.584;2023-07-28T15:20:09;24.90;97.60
4453;DHT22;2239;48.152;11.584;2023-07-28T15:22:34;25.10;97.40
4453;DHT22;2239;48.152;11.584;2023-07-28T15:25:00;25.10;97.50
4453;DHT22;2239;48.152;11.584;2023-07-28T15:27:25;25.00;97.60
4453;DHT22;2239;48.152;11.584;2023-07-28T15:29:51;24.90;97.70
4453;DHT22;2239;48.152;11.584;2023-07-28T15:32:16;24.80;97.70
4453;DHT22;2239;48.152;11.584;2023-07-28T15:34:42;24.90;97.80
4453;DHT22;2239;48.152;11.584;2023-07-28T15:37:07;25.20;97.90
4453;DHT22;2239;48.152;11.584;2023-07-28T15:39:33;25.10;98.30
4453;DHT22;2239;48.152;11.584;2023-07-28T15:41:58;24.90;98.70
4453;DHT22;2239;48.152;11.584;2023-07-28T15:44:24;24.70;99.20
4453;DHT22;2239;48.152;11.584;2023-07-28T15:46:50;24.70;99.80
4453;DHT22;2239;48.152;11.584;2023-07-28T15:49:17;24.70;99.90